createdAt,value
2022-08-05T00:00:21.894Z,9.33
2022-08-05T00:02:51.290Z,6.47
2022-08-05T00:06:02.912Z,10.38
2022-08-05T00:08:33.036Z,6.25
2022-08-05T00:11:01.699Z,6.32
2022-08-05T00:13:39.407Z,8.85
2022-08-05T00:16:11.091Z,5.82
2022-08-05T00:18:44.195Z,7.03
2022-08-05T00:21:12.457Z,3.47
2022-08-05T00:23:46.009Z,5.43
2022-08-05T00:26:22.160Z,8.10
2022-08-05T00:28:49.704Z,7.00
2022-08-05T00:31:41.373Z,4.45
2022-08-05T00:34:56.994Z,6.90
2022-08-05T00:37:10.573Z,8.48
2022-08-05T00:39:57.454Z,7.35
2022-08-05T00:42:36.837Z,6.47
2022-08-05T00:45:08.375Z,6.78
2022-08-05T00:47:56.925Z,8.77
2022-08-05T00:50:25.109Z,8.27
2022-08-05T00:52:53.492Z,7.28
2022-08-05T00:55:22.754Z,12.23
2022-08-05T00:57:58.594Z,8.77
2022-08-05T01:00:28.056Z,10.90
2022-08-05T01:02:56.971Z,7.90
2022-08-05T01:05:27.573Z,8.68
2022-08-05T01:08:40.219Z,5.85
2022-08-05T01:13:57.541Z,8.25
2022-08-05T01:16:47.528Z,7.82
2022-08-05T01:19:36.622Z,7.80
2022-08-05T01:22:39.544Z,10.48
2022-08-05T01:25:07.060Z,6.70
2022-08-05T01:27:55.604Z,6.78
2022-08-05T01:30:33.529Z,11.25
2022-08-05T01:33:06.166Z,9.23
2022-08-05T01:35:50.837Z,11.38
2022-08-05T01:38:24.878Z,9.40
2022-08-05T01:40:58.895Z,7.00
2022-08-05T01:43:28.204Z,10.38
2022-08-05T01:45:57.151Z,5.47
2022-08-05T01:48:28.569Z,13.15
2022-08-05T01:50:56.752Z,12.80
2022-08-05T01:53:57.624Z,7.07
2022-08-05T01:56:14.173Z,11.45
2022-08-05T01:59:08.448Z,8.68
2022-08-05T02:01:40.008Z,8.10
2022-08-05T02:04:12.162Z,12.35
2022-08-05T02:06:39.885Z,8.93
2022-08-05T02:09:07.931Z,12.65
2022-08-05T02:11:55.661Z,11.55
2022-08-05T02:17:07.318Z,10.73
2022-08-05T02:19:47.093Z,14.43
2022-08-05T02:22:27.320Z,10.75
2022-08-05T02:25:03.663Z,13.93
2022-08-05T02:27:57.957Z,10.15
2022-08-05T02:30:20.946Z,10.65
2022-08-05T02:32:51.886Z,11.02
2022-08-05T02:35:28.061Z,12.18
2022-08-05T02:38:02.275Z,13.82
2022-08-05T02:40:31.026Z,14.35
2022-08-05T02:42:59.120Z,8.77
2022-08-05T02:45:28.519Z,10.38
2022-08-05T02:48:16.666Z,12.57
2022-08-05T02:50:48.477Z,11.73
2022-08-05T02:53:19.628Z,14.55
2022-08-05T02:56:00.051Z,7.78
2022-08-05T02:58:30.320Z,13.00
2022-08-05T03:01:01.863Z,10.73
2022-08-05T03:03:34.345Z,11.40
2022-08-05T03:06:56.733Z,12.52
2022-08-05T03:09:07.771Z,15.15
2022-08-05T03:11:55.323Z,8.57
2022-08-05T03:14:21.968Z,19.00
2022-08-05T03:16:49.679Z,13.10
2022-08-05T03:19:34.513Z,13.57
2022-08-05T03:22:05.162Z,10.50
2022-08-05T03:24:46.999Z,12.30
2022-08-05T03:27:16.629Z,15.38
2022-08-05T03:30:07.339Z,12.75
2022-08-05T03:32:33.308Z,10.25
2022-08-05T03:35:00.757Z,9.25
2022-08-05T03:37:28.053Z,15.45
2022-08-05T03:39:59.266Z,14.43
2022-08-05T03:42:32.298Z,12.20
2022-08-05T03:45:01.508Z,11.75
2022-08-05T03:47:56.870Z,13.57
2022-08-05T03:50:54.045Z,10.20
2022-08-05T03:56:01.012Z,12.05
2022-08-05T03:56:49.883Z,14.13
2022-08-05T03:59:47.132Z,16.10
2022-08-05T04:02:37.676Z,13.00
2022-08-05T04:05:10.128Z,10.47
2022-08-05T04:07:53.054Z,13.38
2022-08-05T04:10:33.358Z,12.32
2022-08-05T04:13:06.260Z,12.90
2022-08-05T04:15:36.411Z,19.33
2022-08-05T04:18:07.394Z,12.43
2022-08-05T04:20:37.001Z,15.60
2022-08-05T04:23:04.701Z,12.40
2022-08-05T04:25:56.966Z,15.38
2022-08-05T04:28:30.652Z,11.35
2022-08-05T04:31:01.094Z,12.35
2022-08-05T04:33:54.328Z,12.32
2022-08-05T04:36:44.763Z,10.38
2022-08-05T04:39:03.910Z,9.65
2022-08-05T04:41:37.282Z,15.18
2022-08-05T04:44:09.518Z,9.90
2022-08-05T04:46:38.292Z,17.08
2022-08-05T04:49:12.163Z,12.75
2022-08-05T04:51:43.088Z,15.53
2022-08-05T04:54:12.046Z,11.95
2022-08-05T04:56:42.069Z,14.60
2022-08-05T04:59:13.957Z,12.38
2022-08-05T05:02:07.010Z,17.00
2022-08-05T05:04:35.492Z,13.32
2022-08-05T05:07:09.471Z,11.55
2022-08-05T05:09:37.491Z,14.30
2022-08-05T05:12:06.282Z,13.15
2022-08-05T05:14:36.319Z,17.48
2022-08-05T05:17:03.693Z,12.63
2022-08-05T05:19:37.029Z,11.02
2022-08-05T05:22:22.809Z,12.60
2022-08-05T05:24:57.573Z,14.18
2022-08-05T05:27:44.348Z,12.30
2022-08-05T05:30:15.773Z,12.32
2022-08-05T05:33:00.770Z,10.45
2022-08-05T05:35:31.620Z,12.57
2022-08-05T05:38:08.913Z,13.80
2022-08-05T05:40:41.373Z,10.70
2022-08-05T05:43:12.301Z,11.80
2022-08-05T05:45:48.166Z,13.10
2022-08-05T05:48:16.136Z,10.05
2022-08-05T05:50:44.483Z,14.48
2022-08-05T05:53:22.509Z,10.00
2022-08-05T05:55:51.374Z,12.25
2022-08-05T05:58:30.246Z,12.85
2022-08-05T06:01:12.196Z,11.48
2022-08-05T06:04:01.395Z,12.93
2022-08-05T06:06:33.260Z,9.93
2022-08-05T06:09:06.098Z,9.27
2022-08-05T06:12:01.733Z,11.95
2022-08-05T06:14:34.679Z,11.07
2022-08-05T06:17:21.717Z,16.35
2022-08-05T06:22:28.949Z,11.65
2022-08-05T06:24:57.012Z,10.52
2022-08-05T06:28:10.783Z,9.60
2022-08-05T06:30:17.673Z,7.68
2022-08-05T06:32:47.553Z,10.00
2022-08-05T06:35:15.660Z,11.07
2022-08-05T06:37:57.507Z,9.60
2022-08-05T06:40:27.989Z,12.87
2022-08-05T06:42:58.213Z,10.77
2022-08-05T06:45:44.753Z,11.52
2022-08-05T06:48:52.573Z,12.32
2022-08-05T06:51:00.250Z,6.03
2022-08-05T06:53:28.791Z,6.70
2022-08-05T06:55:59.613Z,10.27
2022-08-05T06:58:34.910Z,8.05
2022-08-05T07:01:07.289Z,9.15
2022-08-05T07:03:35.351Z,9.32
2022-08-05T07:06:05.648Z,5.78
2022-08-05T07:08:47.543Z,8.70
2022-08-05T07:11:22.643Z,17.35
2022-08-05T07:14:20.227Z,12.55
2022-08-05T07:18:02.351Z,11.65
2022-08-05T07:22:28.591Z,6.97
2022-08-05T07:25:22.779Z,8.88
2022-08-05T07:27:57.161Z,9.60
2022-08-05T07:30:32.737Z,8.80
2022-08-05T07:33:09.399Z,9.40
2022-08-05T07:36:03.256Z,7.28
2022-08-05T07:38:34.078Z,7.82
2022-08-05T07:42:09.396Z,8.82
2022-08-05T07:44:01.305Z,8.77
2022-08-05T07:46:30.806Z,8.13
2022-08-05T07:49:05.004Z,4.65
2022-08-05T07:51:49.006Z,6.13
2022-08-05T07:54:30.184Z,5.72
2022-08-05T07:59:38.330Z,7.30
2022-08-05T08:02:17.037Z,3.03
2022-08-05T08:04:48.753Z,6.70
2022-08-05T08:07:17.704Z,2.88
2022-08-05T08:09:46.087Z,4.07
2022-08-05T08:12:35.611Z,7.00
2022-08-05T08:15:03.416Z,2.47
2022-08-05T08:17:32.648Z,5.80
2022-08-05T08:20:22.727Z,5.80
2022-08-05T08:23:03.427Z,3.30
2022-08-05T08:26:00.123Z,8.10
2022-08-05T08:28:18.763Z,3.08
2022-08-05T08:31:04.411Z,7.07
2022-08-05T08:33:37.600Z,4.18
2022-08-05T08:36:29.723Z,3.38
2022-08-05T08:38:56.794Z,5.70
2022-08-05T08:41:51.945Z,8.05
2022-08-05T08:45:17.167Z,6.00
2022-08-05T08:47:46.955Z,5.57
2022-08-05T08:50:22.993Z,6.00
2022-08-05T08:52:43.572Z,6.20
2022-08-05T08:56:02.947Z,8.77
2022-08-05T08:58:07.190Z,4.90
2022-08-05T09:00:36.154Z,4.95
2022-08-05T09:03:06.895Z,7.03
2022-08-05T09:05:38.606Z,5.82
2022-08-05T09:08:26.525Z,4.90
2022-08-05T09:10:54.572Z,4.03
2022-08-05T09:13:23.566Z,4.93
2022-08-05T09:15:51.563Z,2.97
2022-08-05T09:18:18.896Z,4.50
2022-08-05T09:20:47.402Z,5.00
2022-08-05T09:23:19.093Z,5.20
2022-08-05T09:26:15.888Z,5.60
2022-08-05T09:28:48.597Z,3.55
2022-08-05T09:31:44.036Z,3.08
2022-08-05T09:34:10.383Z,3.95
2022-08-05T09:36:56.338Z,4.75
2022-08-05T09:39:41.215Z,2.35
2022-08-05T09:42:23.500Z,1.60
2022-08-05T09:44:56.171Z,3.58
2022-08-05T09:47:34.933Z,2.58
2022-08-05T09:50:18.237Z,2.63
2022-08-05T09:53:01.917Z,2.53
2022-08-05T09:55:58.036Z,4.78
2022-08-05T09:58:23.787Z,2.55
2022-08-05T10:01:14.812Z,4.75
2022-08-05T10:04:00.770Z,2.90
2022-08-05T10:06:28.635Z,3.70
2022-08-05T10:09:09.353Z,1.67
2022-08-05T10:11:52.416Z,3.75
2022-08-05T10:14:30.282Z,3.95
2022-08-05T10:17:37.408Z,1.92
2022-08-05T10:20:04.240Z,4.03
2022-08-05T10:22:37.990Z,1.88
2022-08-05T10:25:10.566Z,2.47
2022-08-05T10:28:13.360Z,3.00
2022-08-05T10:31:20.053Z,3.63
2022-08-05T10:33:16.126Z,3.60
2022-08-05T10:35:44.392Z,4.03
2022-08-05T10:38:13.712Z,2.83
2022-08-05T10:40:58.081Z,3.22
2022-08-05T10:43:43.929Z,1.42
2022-08-05T10:46:14.369Z,2.78
2022-08-05T10:48:57.396Z,5.05
2022-08-05T10:51:53.148Z,2.53
2022-08-05T10:55:02.338Z,2.92
2022-08-05T10:57:32.106Z,3.05
2022-08-05T11:00:23.049Z,3.22
2022-08-05T11:03:23.762Z,4.82
2022-08-05T11:06:08.539Z,4.43
2022-08-05T11:09:10.835Z,5.50
2022-08-05T11:11:53.220Z,2.67
2022-08-05T11:14:49.147Z,1.73
2022-08-05T11:17:57.696Z,2.33
2022-08-05T11:20:38.997Z,2.42
2022-08-05T11:24:03.111Z,1.52
2022-08-05T11:26:32.372Z,1.75
2022-08-05T11:29:11.471Z,3.35
2022-08-05T11:31:57.876Z,1.80
2022-08-05T11:34:55.195Z,2.00
2022-08-05T11:38:36.822Z,2.60
2022-08-05T11:41:36.878Z,2.20
2022-08-05T11:44:12.785Z,1.77
2022-08-05T11:47:11.840Z,4.43
2022-08-05T11:49:49.787Z,2.47
2022-08-05T11:52:30.997Z,2.00
2022-08-05T11:55:07.368Z,6.47
2022-08-05T11:57:39.258Z,4.22
2022-08-05T12:00:30.277Z,2.90
2022-08-05T12:02:57.922Z,3.35
2022-08-05T12:05:36.468Z,4.63
2022-08-05T12:08:11.223Z,1.88
2022-08-05T12:10:45.567Z,2.70
2022-08-05T12:13:47.509Z,2.55
2022-08-05T12:16:14.558Z,3.28
2022-08-05T12:18:49.477Z,3.50
2022-08-05T12:21:31.933Z,3.92
2022-08-05T12:24:09.851Z,2.05
2022-08-05T12:26:44.629Z,3.33
2022-08-05T12:29:22.904Z,1.83
2022-08-05T12:31:55.716Z,2.58
2022-08-05T12:34:28.625Z,2.15
2022-08-05T12:37:17.004Z,4.97
2022-08-05T12:39:51.026Z,3.70
2022-08-05T12:42:21.141Z,5.13
2022-08-05T12:44:49.035Z,1.77
2022-08-05T12:47:30.704Z,1.33
2022-08-05T12:50:03.088Z,3.80
2022-08-05T12:52:41.923Z,3.97
2022-08-05T12:55:28.231Z,2.05
2022-08-05T12:58:49.663Z,2.35
2022-08-05T13:02:03.364Z,3.65
2022-08-05T13:03:43.116Z,1.77
2022-08-05T13:06:17.336Z,0.98
2022-08-05T13:08:50.843Z,2.13
2022-08-05T13:12:01.716Z,1.05
2022-08-05T13:14:36.142Z,3.80
2022-08-05T13:17:09.213Z,1.05
2022-08-05T13:19:52.317Z,2.53
2022-08-05T13:22:28.491Z,1.92
2022-08-05T13:25:00.647Z,1.75
2022-08-05T13:27:37.549Z,2.50
2022-08-05T13:30:33.726Z,1.20
2022-08-05T13:33:03.363Z,0.93
2022-08-05T13:35:31.310Z,1.33
2022-08-05T13:38:20.551Z,2.22
2022-08-05T13:40:57.724Z,1.65
2022-08-05T13:43:44.130Z,1.67
2022-08-05T13:46:12.888Z,2.85
2022-08-05T13:48:57.993Z,1.67
2022-08-05T13:51:29.711Z,2.15
2022-08-05T13:54:21.219Z,2.22
2022-08-05T13:56:52.784Z,3.13
2022-08-05T13:59:25.339Z,1.08
2022-08-05T14:02:00.385Z,6.25
2022-08-05T14:04:49.694Z,1.45
2022-08-05T14:08:00.371Z,2.67
2022-08-05T14:10:28.678Z,2.53
2022-08-05T14:12:59.402Z,1.98
2022-08-05T14:16:05.641Z,3.25
2022-08-05T14:18:18.232Z,4.97
2022-08-05T14:20:48.361Z,1.52
2022-08-05T14:23:23.403Z,1.15
2022-08-05T14:25:53.257Z,2.35
2022-08-05T14:28:26.894Z,3.65
2022-08-05T14:30:55.261Z,2.55
2022-08-05T14:36:00.611Z,5.68
2022-08-05T14:38:34.047Z,1.75
2022-08-05T14:41:06.782Z,5.30
2022-08-05T14:44:02.461Z,1.17
2022-08-05T14:46:29.680Z,1.60
2022-08-05T14:49:03.442Z,0.88
2022-08-05T14:51:43.016Z,2.08
2022-08-05T14:54:28.717Z,1.27
2022-08-05T14:56:57.671Z,1.75
2022-08-05T14:59:29.342Z,1.38
2022-08-05T15:01:57.919Z,2.78
2022-08-05T15:04:27.437Z,1.75
2022-08-05T15:06:56.620Z,0.82
2022-08-05T15:09:51.598Z,1.27
2022-08-05T15:12:11.805Z,1.17
2022-08-05T15:14:49.680Z,0.93
2022-08-05T15:17:47.412Z,1.70
2022-08-05T15:20:18.657Z,1.25
2022-08-05T15:22:52.247Z,2.28
2022-08-05T15:25:23.589Z,4.03
2022-08-05T15:28:10.094Z,1.50
2022-08-05T15:30:43.424Z,2.60
2022-08-05T15:33:11.759Z,3.67
2022-08-05T15:35:45.426Z,2.63
2022-08-05T15:38:33.999Z,1.48
2022-08-05T15:41:20.694Z,1.75
2022-08-05T15:43:47.609Z,0.73
2022-08-05T15:46:14.914Z,4.20
2022-08-05T15:48:53.091Z,1.48
2022-08-05T15:52:09.823Z,3.10
2022-08-05T15:54:15.131Z,4.93
2022-08-05T15:56:42.736Z,1.90
2022-08-05T15:59:20.243Z,5.00
2022-08-05T16:01:52.392Z,4.00
2022-08-05T16:04:25.738Z,2.55
2022-08-05T16:06:56.079Z,3.67
2022-08-05T16:09:24.313Z,2.20
2022-08-05T16:11:53.208Z,2.38
2022-08-05T16:14:22.409Z,2.05
2022-08-05T16:16:50.242Z,1.27
2022-08-05T16:19:25.344Z,4.05
2022-08-05T16:22:05.622Z,0.77
2022-08-05T16:24:40.364Z,2.22
2022-08-05T16:27:17.809Z,1.08
2022-08-05T16:29:50.425Z,1.90
2022-08-05T16:32:23.357Z,5.35
2022-08-05T16:34:56.601Z,4.43
2022-08-05T16:38:16.827Z,2.25
2022-08-05T16:42:53.691Z,3.40
2022-08-05T16:46:04.522Z,5.63
2022-08-05T16:48:07.805Z,2.85
2022-08-05T16:50:37.771Z,2.45
2022-08-05T16:53:12.690Z,8.10
2022-08-05T16:55:50.725Z,3.75
2022-08-05T16:58:19.863Z,5.03
2022-08-05T17:00:48.061Z,7.10
2022-08-05T17:03:19.957Z,6.07
2022-08-05T17:05:53.657Z,7.47
2022-08-05T17:08:35.864Z,1.25
2022-08-05T17:11:12.795Z,7.03
2022-08-05T17:13:45.403Z,2.80
2022-08-05T17:16:33.255Z,4.63
2022-08-05T17:18:59.858Z,2.33
2022-08-05T17:21:35.475Z,3.33
2022-08-05T17:24:19.758Z,3.20
2022-08-05T17:26:56.843Z,3.00
2022-08-05T17:29:32.802Z,2.03
2022-08-05T17:32:01.386Z,4.47
2022-08-05T17:34:30.045Z,2.88
2022-08-05T17:37:02.238Z,2.30
2022-08-05T17:39:34.239Z,1.83
2022-08-05T17:42:28.553Z,5.43
2022-08-05T17:44:51.363Z,2.50
2022-08-05T17:47:21.939Z,3.15
2022-08-05T17:50:00.289Z,7.55
2022-08-05T17:52:32.405Z,5.43
2022-08-05T17:55:00.773Z,4.28
2022-08-05T17:57:30.165Z,6.57
2022-08-05T18:00:03.256Z,4.05
2022-08-05T18:02:31.677Z,3.00
2022-08-05T18:05:03.713Z,3.28
2022-08-05T18:07:41.193Z,4.28
2022-08-05T18:10:14.080Z,5.20
2022-08-05T18:12:49.119Z,5.65
2022-08-05T18:15:16.468Z,2.42
2022-08-05T18:18:00.524Z,4.95
2022-08-05T18:20:31.573Z,3.95
2022-08-05T18:23:09.068Z,3.47
2022-08-05T18:25:39.820Z,3.83
2022-08-05T18:28:12.187Z,3.60
2022-08-05T18:30:50.851Z,5.68
2022-08-05T18:33:23.103Z,7.10
2022-08-05T18:36:03.409Z,5.47
2022-08-05T18:38:31.482Z,3.90
2022-08-05T18:41:56.854Z,2.35
2022-08-05T18:43:48.982Z,6.90
2022-08-05T18:46:19.901Z,4.65
2022-08-05T18:48:51.981Z,3.78
2022-08-05T18:52:04.847Z,1.83
2022-08-05T18:54:30.855Z,2.25
2022-08-05T18:57:00.819Z,5.25
2022-08-05T18:59:42.812Z,4.75
2022-08-05T19:02:28.210Z,3.80
2022-08-05T19:05:02.965Z,3.22
2022-08-05T19:07:46.438Z,3.95
2022-08-05T19:10:14.723Z,1.88
2022-08-05T19:12:43.230Z,9.77
2022-08-05T19:15:57.935Z,2.58
2022-08-05T19:20:41.433Z,1.35
2022-08-05T19:24:03.502Z,5.90
2022-08-05T19:26:02.079Z,2.38
2022-08-05T19:28:31.158Z,5.00
2022-08-05T19:31:01.238Z,3.00
2022-08-05T19:33:35.461Z,3.42
2022-08-05T19:36:06.251Z,3.85
2022-08-05T19:38:35.587Z,2.42
2022-08-05T19:41:07.004Z,3.85
2022-08-05T19:44:05.805Z,3.42
2022-08-05T19:46:30.004Z,3.10
2022-08-05T19:49:03.499Z,6.65
2022-08-05T19:52:09.325Z,4.60
2022-08-05T19:54:31.272Z,3.53
2022-08-05T19:57:06.826Z,3.60
2022-08-05T19:59:55.808Z,4.65
2022-08-05T20:02:25.279Z,3.88
2022-08-05T20:04:53.893Z,8.75
2022-08-05T20:07:48.090Z,5.03
2022-08-05T20:10:13.440Z,5.95
2022-08-05T20:12:48.339Z,2.65
2022-08-05T20:15:48.177Z,3.70
2022-08-05T20:18:10.412Z,7.88
2022-08-05T20:23:40.147Z,5.90
2022-08-05T20:26:16.462Z,6.95
2022-08-05T20:28:55.745Z,4.40
2022-08-05T20:31:36.979Z,5.57
2022-08-05T20:34:10.756Z,5.63
2022-08-05T20:36:39.140Z,4.10
2022-08-05T20:39:12.952Z,8.73
2022-08-05T20:41:43.946Z,4.03
2022-08-05T20:44:19.142Z,3.17
2022-08-05T20:47:03.616Z,6.60
2022-08-05T20:49:33.208Z,6.32
2022-08-05T20:52:07.452Z,6.55
2022-08-05T20:54:58.871Z,8.15
2022-08-05T20:57:42.348Z,9.88
2022-08-05T21:00:40.325Z,5.83
2022-08-05T21:03:01.430Z,2.38
2022-08-05T21:05:47.556Z,8.27
2022-08-05T21:08:15.771Z,4.80
2022-08-05T21:10:48.723Z,5.03
2022-08-05T21:13:36.718Z,5.28
2022-08-05T21:16:04.217Z,3.33
2022-08-05T21:18:32.065Z,7.10
2022-08-05T21:20:59.058Z,3.20
2022-08-05T21:23:26.040Z,4.35
2022-08-05T21:25:55.431Z,5.95
2022-08-05T21:28:23.843Z,5.60
2022-08-05T21:30:51.272Z,4.90
2022-08-05T21:33:22.380Z,4.57
2022-08-05T21:35:56.020Z,10.23
2022-08-05T21:38:27.307Z,6.68
2022-08-05T21:40:54.441Z,5.25
2022-08-05T21:43:23.978Z,5.13
2022-08-05T21:45:57.428Z,3.90
2022-08-05T21:48:28.453Z,7.53
2022-08-05T21:50:55.828Z,6.63
2022-08-05T21:53:27.701Z,6.00
2022-08-05T21:56:05.441Z,4.57
2022-08-05T21:58:42.303Z,3.00
2022-08-05T22:01:24.271Z,5.60
2022-08-05T22:03:53.650Z,10.82
2022-08-05T22:06:22.537Z,7.38
2022-08-05T22:08:52.174Z,3.80
2022-08-05T22:11:34.940Z,6.00
2022-08-05T22:14:18.209Z,7.40
2022-08-05T22:16:55.900Z,6.63
2022-08-05T22:20:02.747Z,3.95
2022-08-05T22:22:10.878Z,5.70
2022-08-05T22:24:58.332Z,3.85
2022-08-05T22:28:08.744Z,3.78
2022-08-05T22:30:32.272Z,5.45
2022-08-05T22:33:02.584Z,24.30
2022-08-05T22:35:38.602Z,8.50
2022-08-05T22:38:16.845Z,3.78
2022-08-05T22:40:49.303Z,4.15
2022-08-05T22:43:36.839Z,4.15
2022-08-05T22:46:12.165Z,4.30
2022-08-05T22:48:50.830Z,3.88
2022-08-05T22:51:22.851Z,3.88
2022-08-05T22:53:56.948Z,3.90
2022-08-05T22:56:30.292Z,5.78
2022-08-05T22:58:59.989Z,5.75
2022-08-05T23:02:04.358Z,5.78
2022-08-05T23:04:17.467Z,5.53
2022-08-05T23:06:44.688Z,4.55
2022-08-05T23:09:26.951Z,5.20
2022-08-05T23:11:59.799Z,4.77
2022-08-05T23:14:32.381Z,5.47
2022-08-05T23:17:24.251Z,6.07
2022-08-05T23:19:56.752Z,8.85
2022-08-05T23:22:27.867Z,3.35
2022-08-05T23:24:55.549Z,6.57
2022-08-05T23:27:22.855Z,4.60
2022-08-05T23:29:51.289Z,4.40
2022-08-05T23:32:22.532Z,4.82
2022-08-05T23:34:49.902Z,5.68
2022-08-05T23:37:18.239Z,3.63
2022-08-05T23:39:53.690Z,4.47
2022-08-05T23:42:23.418Z,10.17
2022-08-05T23:44:56.306Z,3.55
2022-08-05T23:47:25.072Z,6.88
2022-08-05T23:49:55.740Z,2.70
2022-08-05T23:52:27.775Z,3.90
2022-08-05T23:54:57.666Z,3.25
2022-08-05T23:57:28.181Z,5.82
